createdAt,value
2017-11-11T00:00:24.781Z,100680.66
2017-11-11T00:02:59.488Z,100675.14
2017-11-11T00:05:34.293Z,100681.65
2017-11-11T00:08:08.736Z,100683.44
2017-11-11T00:10:44.121Z,100676.42
2017-11-11T00:13:19.042Z,100682.42
2017-11-11T00:15:54.158Z,100674.41
2017-11-11T00:18:28.953Z,100676.73
2017-11-11T00:21:03.809Z,100673.30
2017-11-11T00:23:38.449Z,100679.42
2017-11-11T00:26:14.321Z,100679.42
2017-11-11T00:28:49.280Z,100683.03
2017-11-11T00:31:24.086Z,100680.48
2017-11-11T00:33:58.894Z,100666.88
2017-11-11T00:36:33.861Z,100674.14
2017-11-11T00:39:09.053Z,100673.60
2017-11-11T00:41:43.737Z,100672.77
2017-11-11T00:44:18.549Z,100678.36
2017-11-11T00:46:53.169Z,100679.23
2017-11-11T00:49:27.744Z,100685.98
2017-11-11T00:52:02.627Z,100686.14
2017-11-11T00:54:37.261Z,100687.35
2017-11-11T00:57:11.980Z,100679.97
2017-11-11T00:59:46.790Z,100684.97
2017-11-11T01:02:21.605Z,100688.23
2017-11-11T01:04:56.311Z,100680.55
2017-11-11T01:07:31.893Z,100675.56
2017-11-11T01:10:06.704Z,100681.73
2017-11-11T01:12:41.952Z,100658.13
2017-11-11T01:15:16.853Z,100676.29
2017-11-11T01:17:51.833Z,100666.43
2017-11-11T01:20:26.645Z,100661.58
2017-11-11T01:23:01.543Z,100661.31
2017-11-11T01:25:36.720Z,100660.02
2017-11-11T01:28:11.750Z,100647.55
2017-11-11T01:30:46.759Z,100654.37
2017-11-11T01:33:21.649Z,100641.29
2017-11-11T01:35:55.984Z,100627.64
2017-11-11T01:38:30.938Z,100640.20
2017-11-11T01:41:05.843Z,100625.46
2017-11-11T01:43:40.739Z,100625.19
2017-11-11T01:46:15.621Z,100632.64
2017-11-11T01:48:50.318Z,100629.91
2017-11-11T01:51:24.857Z,100639.87
2017-11-11T01:54:00.021Z,100635.35
2017-11-11T01:56:34.365Z,100631.53
2017-11-11T01:59:08.926Z,100641.42
2017-11-11T02:01:43.769Z,100627.47
2017-11-11T02:04:18.593Z,100620.94
2017-11-11T02:06:53.697Z,100624.51
2017-11-11T02:09:29.018Z,100612.92
2017-11-11T02:12:03.952Z,100614.31
2017-11-11T02:14:38.550Z,100608.97
2017-11-11T02:17:14.513Z,100609.25
2017-11-11T02:19:48.474Z,100611.77
2017-11-11T02:22:22.982Z,100603.08
2017-11-11T02:24:58.032Z,100611.38
2017-11-11T02:27:33.157Z,100609.69
2017-11-11T02:30:07.750Z,100595.83
2017-11-11T02:32:42.390Z,100587.59
2017-11-11T02:35:17.353Z,100588.11
2017-11-11T02:37:52.120Z,100592.16
2017-11-11T02:40:27.199Z,100594.11
2017-11-11T02:43:01.521Z,100580.86
2017-11-11T02:45:36.657Z,100575.63
2017-11-11T02:48:11.209Z,100575.23
2017-11-11T02:50:45.925Z,100583.82
2017-11-11T02:53:20.888Z,100574.23
2017-11-11T02:55:55.672Z,100576.46
2017-11-11T02:58:30.400Z,100556.81
2017-11-11T03:01:04.550Z,100546.97
2017-11-11T03:03:39.754Z,100543.35
2017-11-11T03:06:14.661Z,100545.63
2017-11-11T03:08:49.654Z,100547.25
2017-11-11T03:11:24.493Z,100539.67
2017-11-11T03:13:59.604Z,100543.51
2017-11-11T03:16:34.073Z,100540.84
2017-11-11T03:19:08.948Z,100530.55
2017-11-11T03:21:44.053Z,100543.17
2017-11-11T03:24:19.482Z,100531.22
2017-11-11T03:26:54.481Z,100541.84
2017-11-11T03:29:29.210Z,100544.51
2017-11-11T03:32:03.888Z,100547.17
2017-11-11T03:34:39.462Z,100537.49
2017-11-11T03:37:14.370Z,100545.02
2017-11-11T03:39:49.137Z,100528.86
2017-11-11T03:42:23.753Z,100539.91
2017-11-11T03:44:58.276Z,100533.55
2017-11-11T03:47:33.434Z,100529.99
2017-11-11T03:50:08.353Z,100533.20
2017-11-11T03:52:43.366Z,100533.00
2017-11-11T03:55:18.385Z,100528.77
2017-11-11T03:57:53.348Z,100532.16
2017-11-11T04:00:28.465Z,100539.66
2017-11-11T04:03:03.154Z,100535.27
2017-11-11T04:05:37.850Z,100537.66
2017-11-11T04:08:12.611Z,100537.16
2017-11-11T04:10:47.262Z,100529.66
2017-11-11T04:13:22.290Z,100528.94
2017-11-11T04:15:56.986Z,100525.09
2017-11-11T04:18:31.553Z,100520.02
2017-11-11T04:21:06.469Z,100516.07
2017-11-11T04:23:41.181Z,100518.20
2017-11-11T04:26:15.902Z,100511.11
2017-11-11T04:28:50.707Z,100509.95
2017-11-11T04:31:26.529Z,100512.47
2017-11-11T04:34:01.236Z,100509.84
2017-11-11T04:36:35.969Z,100497.55
2017-11-11T04:39:10.545Z,100495.27
2017-11-11T04:41:45.154Z,100486.81
2017-11-11T04:44:20.052Z,100483.86
2017-11-11T04:46:54.834Z,100492.70
2017-11-11T04:49:29.529Z,100499.22
2017-11-11T04:52:03.992Z,100490.14
2017-11-11T04:54:38.858Z,100486.41
2017-11-11T04:57:13.844Z,100486.47
2017-11-11T04:59:48.881Z,100484.68
2017-11-11T05:02:23.805Z,100487.14
2017-11-11T05:04:58.714Z,100479.18
2017-11-11T05:07:33.849Z,100476.73
2017-11-11T05:10:08.733Z,100485.03
2017-11-11T05:12:43.253Z,100475.33
2017-11-11T05:15:18.142Z,100477.95
2017-11-11T05:17:52.837Z,100477.41
2017-11-11T05:20:27.434Z,100481.00
2017-11-11T05:23:02.447Z,100469.16
2017-11-11T05:25:37.299Z,100480.44
2017-11-11T05:28:11.865Z,100470.26
2017-11-11T05:30:46.506Z,100462.02
2017-11-11T05:33:21.504Z,100463.63
2017-11-11T05:35:56.189Z,100466.79
2017-11-11T05:38:31.298Z,100470.52
2017-11-11T05:41:06.356Z,100472.37
2017-11-11T05:43:41.216Z,100480.71
2017-11-11T05:46:16.432Z,100480.38
2017-11-11T05:48:51.201Z,100466.55
2017-11-11T05:51:26.117Z,100465.33
2017-11-11T05:54:01.522Z,100459.98
2017-11-11T05:56:36.027Z,100455.85
2017-11-11T05:59:10.845Z,100455.03
2017-11-11T06:01:46.421Z,100454.46
2017-11-11T06:04:21.117Z,100457.59
2017-11-11T06:06:56.079Z,100453.59
2017-11-11T06:09:31.408Z,100450.91
2017-11-11T06:12:06.309Z,100432.75
2017-11-11T06:14:41.290Z,100437.03
2017-11-11T06:17:16.200Z,100437.75
2017-11-11T06:19:51.290Z,100433.84
2017-11-11T06:22:26.083Z,100433.17
2017-11-11T06:25:00.902Z,100425.38
2017-11-11T06:27:35.905Z,100428.42
2017-11-11T06:30:10.934Z,100415.78
2017-11-11T06:32:46.667Z,100413.40
2017-11-11T06:35:21.374Z,100408.52
2017-11-11T06:37:56.222Z,100411.56
2017-11-11T06:40:31.114Z,100410.91
2017-11-11T06:43:05.757Z,100413.55
2017-11-11T06:45:40.441Z,100408.59
2017-11-11T06:48:15.617Z,100411.70
2017-11-11T06:50:50.785Z,100411.55
2017-11-11T06:53:25.593Z,100408.31
2017-11-11T06:56:00.201Z,100407.92
2017-11-11T06:58:35.021Z,100417.05
2017-11-11T07:01:09.685Z,100415.14
2017-11-11T07:03:44.294Z,100416.63
2017-11-11T07:06:19.115Z,100413.95
2017-11-11T07:08:53.625Z,100402.36
2017-11-11T07:11:28.313Z,100407.16
2017-11-11T07:14:02.683Z,100405.31
2017-11-11T07:16:37.926Z,100401.16
2017-11-11T07:19:13.682Z,100397.94
2017-11-11T07:21:48.789Z,100398.72
2017-11-11T07:24:23.890Z,100400.44
2017-11-11T07:26:59.070Z,100397.60
2017-11-11T07:29:34.092Z,100394.31
2017-11-11T07:32:09.298Z,100398.65
2017-11-11T07:34:44.193Z,100393.91
2017-11-11T07:37:19.077Z,100397.41
2017-11-11T07:39:54.201Z,100400.70
2017-11-11T07:42:29.012Z,100398.81
2017-11-11T07:45:04.022Z,100399.02
2017-11-11T07:47:38.729Z,100384.31
2017-11-11T07:50:13.545Z,100388.36
2017-11-11T07:52:48.321Z,100383.08
2017-11-11T07:55:24.193Z,100379.30
2017-11-11T07:57:59.481Z,100367.73
2017-11-11T08:00:34.208Z,100370.32
2017-11-11T08:03:08.908Z,100369.31
2017-11-11T08:05:43.734Z,100365.75
2017-11-11T08:08:18.384Z,100355.73
2017-11-11T08:10:53.170Z,100354.11
2017-11-11T08:13:28.833Z,100349.17
2017-11-11T08:16:03.308Z,100346.73
2017-11-11T08:18:38.313Z,100344.12
2017-11-11T08:21:12.909Z,100340.69
2017-11-11T08:23:47.908Z,100345.41
2017-11-11T08:26:22.818Z,100351.84
2017-11-11T08:28:57.302Z,100348.91
2017-11-11T08:31:32.234Z,100373.28
2017-11-11T08:34:07.530Z,100365.38
2017-11-11T08:36:41.849Z,100358.78
2017-11-11T08:39:16.868Z,100353.84
2017-11-11T08:41:51.486Z,100354.22
2017-11-11T08:44:27.053Z,100338.91
2017-11-11T08:47:01.933Z,100332.60
2017-11-11T08:49:36.627Z,100330.62
2017-11-11T08:52:11.536Z,100334.77
2017-11-11T08:54:46.446Z,100344.64
2017-11-11T08:57:21.046Z,100333.94
2017-11-11T08:59:55.737Z,100330.83
2017-11-11T09:02:30.748Z,100325.91
2017-11-11T09:05:05.318Z,100314.44
2017-11-11T09:07:39.989Z,100317.44
2017-11-11T09:10:14.644Z,100323.55
2017-11-11T09:12:49.569Z,100310.36
2017-11-11T09:15:25.155Z,100306.78
2017-11-11T09:18:00.026Z,100309.98
2017-11-11T09:20:34.910Z,100300.94
2017-11-11T09:23:09.609Z,100303.35
2017-11-11T09:25:44.592Z,100292.95
2017-11-11T09:28:20.197Z,100288.80
2017-11-11T09:30:55.254Z,100292.43
2017-11-11T09:33:30.180Z,100286.05
2017-11-11T09:36:05.387Z,100305.23
2017-11-11T09:38:40.269Z,100294.84
2017-11-11T09:41:15.661Z,100290.59
2017-11-11T09:43:50.806Z,100292.43
2017-11-11T09:46:27.324Z,100301.68
2017-11-11T09:49:01.838Z,100307.42
2017-11-11T09:51:36.738Z,100297.84
2017-11-11T09:54:11.457Z,100287.59
2017-11-11T09:56:46.651Z,100281.08
2017-11-11T09:59:21.909Z,100277.21
2017-11-11T10:01:57.031Z,100272.18
2017-11-11T10:04:32.060Z,100275.94
2017-11-11T10:07:07.093Z,100276.42
2017-11-11T10:09:42.014Z,100261.95
2017-11-11T10:12:17.230Z,100263.81
2017-11-11T10:14:52.348Z,100264.19
2017-11-11T10:17:27.248Z,100252.89
2017-11-11T10:20:02.086Z,100247.03
2017-11-11T10:22:37.045Z,100250.47
2017-11-11T10:25:12.134Z,100249.81
2017-11-11T10:27:46.562Z,100248.36
2017-11-11T10:30:20.957Z,100247.44
2017-11-11T10:32:55.646Z,100240.92
2017-11-11T10:35:30.321Z,100234.35
2017-11-11T10:38:05.306Z,100232.42
2017-11-11T10:40:40.377Z,100234.70
2017-11-11T10:43:14.839Z,100228.76
2017-11-11T10:45:49.958Z,100219.06
2017-11-11T10:48:24.763Z,100215.84
2017-11-11T10:50:59.433Z,100212.07
2017-11-11T10:53:34.513Z,100209.40
2017-11-11T10:56:09.642Z,100204.48
2017-11-11T10:58:44.876Z,100204.80
2017-11-11T11:01:20.098Z,100199.38
2017-11-11T11:03:55.261Z,100204.58
2017-11-11T11:06:30.156Z,100189.16
2017-11-11T11:09:04.346Z,100194.88
2017-11-11T11:11:39.574Z,100216.95
2017-11-11T11:14:14.597Z,100222.75
2017-11-11T11:16:49.609Z,100232.55
2017-11-11T11:19:24.408Z,100246.69
2017-11-11T11:21:59.034Z,100226.19
2017-11-11T11:24:33.852Z,100228.35
2017-11-11T11:27:08.207Z,100213.44
2017-11-11T11:29:43.419Z,100228.84
2017-11-11T11:32:18.019Z,100215.15
2017-11-11T11:34:52.739Z,100222.41
2017-11-11T11:37:27.649Z,100216.98
2017-11-11T11:40:02.370Z,100214.48
2017-11-11T11:42:37.371Z,100216.75
2017-11-11T11:45:12.945Z,100207.59
2017-11-11T11:47:47.752Z,100215.33
2017-11-11T11:50:22.720Z,100204.55
2017-11-11T11:52:57.723Z,100207.41
2017-11-11T11:55:32.703Z,100205.55
2017-11-11T11:58:07.598Z,100198.59
2017-11-11T12:00:42.280Z,100189.66
2017-11-11T12:03:17.098Z,100179.23
2017-11-11T12:05:51.721Z,100176.09
2017-11-11T12:08:26.850Z,100172.08
2017-11-11T12:11:01.849Z,100175.44
2017-11-11T12:13:36.833Z,100173.80
2017-11-11T12:16:11.849Z,100176.10
2017-11-11T12:18:46.861Z,100165.16
2017-11-11T12:21:21.581Z,100158.53
2017-11-11T12:23:56.357Z,100167.45
2017-11-11T12:26:31.114Z,100168.41
2017-11-11T12:29:05.997Z,100156.84
2017-11-11T12:31:40.699Z,100154.90
2017-11-11T12:34:15.577Z,100150.31
2017-11-11T12:36:50.172Z,100144.39
2017-11-11T12:39:24.761Z,100144.33
2017-11-11T12:42:00.642Z,100150.50
2017-11-11T12:44:36.250Z,100164.12
2017-11-11T12:47:11.117Z,100164.51
2017-11-11T12:49:46.206Z,100158.52
2017-11-11T12:52:22.011Z,100148.40
2017-11-11T12:54:56.711Z,100130.64
2017-11-11T12:57:31.584Z,100136.50
2017-11-11T13:00:06.585Z,100142.73
2017-11-11T13:02:41.388Z,100135.55
2017-11-11T13:05:16.172Z,100125.16
2017-11-11T13:07:50.641Z,100118.82
2017-11-11T13:10:25.729Z,100121.35
2017-11-11T13:13:00.720Z,100123.77
2017-11-11T13:15:35.629Z,100108.10
2017-11-11T13:18:10.730Z,100113.45
2017-11-11T13:20:45.693Z,100116.96
2017-11-11T13:23:20.611Z,100112.45
2017-11-11T13:25:55.333Z,100096.09
2017-11-11T13:28:30.437Z,100095.64
2017-11-11T13:31:05.106Z,100096.59
2017-11-11T13:33:39.927Z,100104.98
2017-11-11T13:36:14.628Z,100101.55
2017-11-11T13:38:49.558Z,100104.11
2017-11-11T13:41:24.361Z,100103.12
2017-11-11T13:43:59.086Z,100093.86
2017-11-11T13:46:33.682Z,100083.94
2017-11-11T13:49:08.674Z,100081.95
2017-11-11T13:51:43.478Z,100082.71
2017-11-11T13:54:18.255Z,100083.67
2017-11-11T13:56:53.033Z,100089.10
2017-11-11T13:59:27.845Z,100085.64
2017-11-11T14:02:03.695Z,100087.24
2017-11-11T14:04:38.385Z,100091.63
2017-11-11T14:07:13.006Z,100088.58
2017-11-11T14:09:48.250Z,100097.35
2017-11-11T14:12:23.385Z,100096.74
2017-11-11T14:14:58.202Z,100093.08
2017-11-11T14:17:32.864Z,100091.05
2017-11-11T14:20:07.710Z,100098.14
2017-11-11T14:22:42.594Z,100093.61
2017-11-11T14:25:17.357Z,100088.00
2017-11-11T14:27:52.292Z,100082.91
2017-11-11T14:30:27.393Z,100089.34
2017-11-11T14:33:02.076Z,100093.84
2017-11-11T14:35:36.914Z,100087.66
2017-11-11T14:38:12.006Z,100098.82
2017-11-11T14:40:46.822Z,100087.22
2017-11-11T14:43:21.512Z,100090.03
2017-11-11T14:45:56.406Z,100084.87
2017-11-11T14:48:31.233Z,100080.36
2017-11-11T14:51:05.993Z,100082.13
2017-11-11T14:53:40.606Z,100075.39
2017-11-11T14:56:15.831Z,100081.67
2017-11-11T14:58:50.686Z,100071.11
2017-11-11T15:01:25.706Z,100067.59
2017-11-11T15:04:00.373Z,100064.23
2017-11-11T15:06:35.288Z,100071.69
2017-11-11T15:09:10.661Z,100079.52
2017-11-11T15:11:45.573Z,100081.68
2017-11-11T15:14:20.485Z,100072.91
2017-11-11T15:16:55.105Z,100081.01
2017-11-11T15:19:30.105Z,100084.45
2017-11-11T15:22:05.328Z,100081.69
2017-11-11T15:24:40.422Z,100083.36
2017-11-11T15:27:15.229Z,100087.03
2017-11-11T15:29:49.706Z,100091.24
2017-11-11T15:32:24.712Z,100098.56
2017-11-11T15:34:59.638Z,100106.16
2017-11-11T15:37:34.360Z,100102.64
2017-11-11T15:40:09.376Z,100102.96
2017-11-11T15:42:44.483Z,100094.13
2017-11-11T15:45:19.545Z,100095.57
2017-11-11T15:47:54.457Z,100090.05
2017-11-11T15:50:29.277Z,100091.36
2017-11-11T15:53:04.098Z,100090.59
2017-11-11T15:55:38.706Z,100092.70
2017-11-11T15:58:14.038Z,100093.47
2017-11-11T16:00:48.836Z,100093.27
2017-11-11T16:03:23.536Z,100091.30
2017-11-11T16:05:58.138Z,100086.91
2017-11-11T16:08:32.945Z,100080.98
2017-11-11T16:11:07.554Z,100083.05
2017-11-11T16:13:42.637Z,100084.38
2017-11-11T16:16:17.381Z,100085.09
2017-11-11T16:18:52.433Z,100085.64
2017-11-11T16:21:27.365Z,100081.45
2017-11-11T16:24:02.153Z,100085.02
2017-11-11T16:26:36.686Z,100094.23
2017-11-11T16:29:11.701Z,100091.18
2017-11-11T16:31:46.494Z,100093.16
2017-11-11T16:34:22.364Z,100102.19
2017-11-11T16:36:57.388Z,100101.75
2017-11-11T16:39:32.120Z,100098.30
2017-11-11T16:42:06.913Z,100096.47
2017-11-11T16:44:41.756Z,100098.50
2017-11-11T16:47:16.438Z,100100.05
2017-11-11T16:49:51.153Z,100105.13
2017-11-11T16:52:25.346Z,100116.13
2017-11-11T16:54:59.861Z,100112.26
2017-11-11T16:57:34.513Z,100114.12
2017-11-11T17:00:09.706Z,100113.10
2017-11-11T17:02:44.530Z,100115.11
2017-11-11T17:05:19.416Z,100119.90
2017-11-11T17:07:55.006Z,100110.92
2017-11-11T17:10:29.790Z,100117.55
2017-11-11T17:13:04.754Z,100122.31
2017-11-11T17:15:39.638Z,100129.17
2017-11-11T17:18:14.466Z,100130.12
2017-11-11T17:20:49.142Z,100139.48
2017-11-11T17:23:23.969Z,100128.93
2017-11-11T17:25:58.854Z,100137.18
2017-11-11T17:28:33.757Z,100139.41
2017-11-11T17:31:08.456Z,100139.19
2017-11-11T17:33:43.329Z,100139.09
2017-11-11T17:36:18.145Z,100140.42
2017-11-11T17:38:52.976Z,100142.55
2017-11-11T17:41:27.673Z,100142.20
2017-11-11T17:44:02.494Z,100145.59
2017-11-11T17:46:36.967Z,100143.23
2017-11-11T17:49:11.885Z,100153.78
2017-11-11T17:51:47.458Z,100156.78
2017-11-11T17:54:21.917Z,100160.41
2017-11-11T17:56:56.829Z,100148.87
2017-11-11T17:59:31.737Z,100165.85
2017-11-11T18:02:06.670Z,100168.40
2017-11-11T18:04:41.642Z,100178.51
2017-11-11T18:07:16.750Z,100178.12
2017-11-11T18:09:51.630Z,100185.27
2017-11-11T18:12:26.486Z,100183.28
2017-11-11T18:15:01.513Z,100173.55
2017-11-11T18:17:36.517Z,100177.44
2017-11-11T18:20:11.693Z,100176.59
2017-11-11T18:22:46.601Z,100176.86
2017-11-11T18:25:21.221Z,100179.42
2017-11-11T18:27:55.909Z,100179.30
2017-11-11T18:30:30.729Z,100181.52
2017-11-11T18:33:05.513Z,100185.91
2017-11-11T18:35:40.310Z,100183.83
2017-11-11T18:38:15.970Z,100180.39
2017-11-11T18:40:50.766Z,100185.97
2017-11-11T18:43:25.905Z,100191.39
2017-11-11T18:46:01.042Z,100185.27
2017-11-11T18:48:35.934Z,100194.30
2017-11-11T18:51:11.057Z,100193.24
2017-11-11T18:53:46.167Z,100194.47
2017-11-11T18:56:21.051Z,100193.95
2017-11-11T18:58:55.797Z,100199.22
2017-11-11T19:01:30.510Z,100194.64
2017-11-11T19:04:05.150Z,100208.31
2017-11-11T19:06:39.802Z,100200.39
2017-11-11T19:09:14.788Z,100206.91
2017-11-11T19:11:49.469Z,100191.10
2017-11-11T19:14:24.445Z,100209.55
2017-11-11T19:16:59.834Z,100218.62
2017-11-11T19:19:34.802Z,100219.83
2017-11-11T19:22:09.763Z,100226.66
2017-11-11T19:24:44.419Z,100222.25
2017-11-11T19:27:19.707Z,100229.53
2017-11-11T19:29:54.361Z,100237.11
2017-11-11T19:32:29.177Z,100234.35
2017-11-11T19:35:04.046Z,100237.95
2017-11-11T19:37:38.801Z,100242.56
2017-11-11T19:40:13.736Z,100241.85
2017-11-11T19:42:48.533Z,100249.89
2017-11-11T19:45:23.473Z,100254.52
2017-11-11T19:47:58.313Z,100254.84
2017-11-11T19:50:34.209Z,100259.70
2017-11-11T19:53:09.101Z,100262.07
2017-11-11T19:55:43.897Z,100253.90
2017-11-11T19:58:19.662Z,100262.59
2017-11-11T20:00:54.329Z,100255.80
2017-11-11T20:03:28.440Z,100252.37
2017-11-11T20:06:03.858Z,100254.11
2017-11-11T20:08:38.613Z,100252.31
2017-11-11T20:11:13.399Z,100249.67
2017-11-11T20:13:48.303Z,100250.81
2017-11-11T20:16:23.118Z,100255.50
2017-11-11T20:18:58.029Z,100254.00
2017-11-11T20:21:32.621Z,100253.92
2017-11-11T20:24:08.372Z,100248.38
2017-11-11T20:26:43.356Z,100250.84
2017-11-11T20:29:17.752Z,100258.75
2017-11-11T20:31:52.733Z,100269.54
2017-11-11T20:34:27.748Z,100264.90
2017-11-11T20:37:02.723Z,100262.23
2017-11-11T20:39:37.723Z,100267.11
2017-11-11T20:42:12.697Z,100270.84
2017-11-11T20:44:47.758Z,100278.55
2017-11-11T20:47:22.736Z,100282.74
2017-11-11T20:49:57.526Z,100286.31
2017-11-11T20:52:32.114Z,100286.31
2017-11-11T20:55:06.737Z,100288.64
2017-11-11T20:57:41.208Z,100291.58
2017-11-11T21:00:16.206Z,100291.36
2017-11-11T21:02:50.928Z,100292.41
2017-11-11T21:05:26.593Z,100284.92
2017-11-11T21:08:01.184Z,100285.21
2017-11-11T21:10:36.036Z,100290.61
2017-11-11T21:13:11.415Z,100289.08
2017-11-11T21:15:46.637Z,100285.69
2017-11-11T21:18:21.436Z,100292.15
2017-11-11T21:20:55.822Z,100289.69
2017-11-11T21:23:30.578Z,100294.08
2017-11-11T21:26:05.324Z,100292.88
2017-11-11T21:28:40.502Z,100304.16
2017-11-11T21:31:14.766Z,100302.83
2017-11-11T21:33:49.693Z,100303.38
2017-11-11T21:36:24.521Z,100303.71
2017-11-11T21:38:59.512Z,100305.12
2017-11-11T21:41:34.568Z,100307.89
2017-11-11T21:44:09.345Z,100302.04
2017-11-11T21:46:44.150Z,100306.71
2017-11-11T21:49:22.165Z,100304.27
2017-11-11T21:51:56.978Z,100300.16
2017-11-11T21:54:31.868Z,100307.05
2017-11-11T21:57:06.449Z,100301.39
2017-11-11T21:59:41.365Z,100305.99
2017-11-11T22:02:15.989Z,100301.50
2017-11-11T22:04:50.787Z,100290.34
2017-11-11T22:07:25.725Z,100296.73
2017-11-11T22:10:00.506Z,100301.12
2017-11-11T22:12:35.521Z,100303.12
2017-11-11T22:15:10.436Z,100304.45
2017-11-11T22:17:45.453Z,100303.22
2017-11-11T22:20:20.463Z,100306.62
2017-11-11T22:22:55.394Z,100307.17
2017-11-11T22:25:30.296Z,100310.89
2017-11-11T22:28:05.065Z,100311.58
2017-11-11T22:30:39.930Z,100307.12
2017-11-11T22:33:14.628Z,100308.02
2017-11-11T22:35:49.370Z,100306.22
2017-11-11T22:38:25.241Z,100308.17
2017-11-11T22:41:00.093Z,100306.50
2017-11-11T22:43:35.084Z,100298.27
2017-11-11T22:46:09.774Z,100300.99
2017-11-11T22:48:44.589Z,100302.63
2017-11-11T22:51:19.778Z,100306.02
2017-11-11T22:53:54.797Z,100305.78
2017-11-11T22:56:29.705Z,100302.17
2017-11-11T22:59:04.529Z,100297.78
2017-11-11T23:01:39.393Z,100302.67
2017-11-11T23:04:14.413Z,100300.63
2017-11-11T23:06:50.002Z,100301.16
2017-11-11T23:09:24.764Z,100299.11
2017-11-11T23:11:59.548Z,100297.05
2017-11-11T23:14:34.856Z,100302.44
2017-11-11T23:17:09.559Z,100290.46
2017-11-11T23:19:44.453Z,100293.28
2017-11-11T23:22:19.001Z,100288.84
2017-11-11T23:24:54.005Z,100289.11
2017-11-11T23:27:29.864Z,100295.41
2017-11-11T23:30:04.338Z,100287.39
2017-11-11T23:32:39.302Z,100288.80
2017-11-11T23:35:14.017Z,100293.05
2017-11-11T23:37:48.830Z,100290.79
2017-11-11T23:40:23.829Z,100297.66
2017-11-11T23:42:58.509Z,100294.22
2017-11-11T23:45:33.319Z,100298.45
2017-11-11T23:48:07.925Z,100293.12
2017-11-11T23:50:42.517Z,100291.78
2017-11-11T23:53:17.302Z,100296.66
2017-11-11T23:55:52.169Z,100283.50
2017-11-11T23:58:27.080Z,100288.40
